createdAt,value
2024-01-25T00:00:54.055Z,4.40
2024-01-25T00:03:20.850Z,4.73
2024-01-25T00:05:48.944Z,4.70
2024-01-25T00:08:15.935Z,4.37
2024-01-25T00:10:42.811Z,4.03
2024-01-25T00:13:09.876Z,4.37
2024-01-25T00:15:36.628Z,4.37
2024-01-25T00:18:03.721Z,4.77
2024-01-25T00:20:30.712Z,4.90
2024-01-25T00:22:57.464Z,4.70
2024-01-25T00:25:24.314Z,4.33
2024-01-25T00:27:51.161Z,5.20
2024-01-25T00:30:18.014Z,4.70
2024-01-25T00:32:44.797Z,5.80
2024-01-25T00:35:14.533Z,5.10
2024-01-25T00:37:42.340Z,4.60
2024-01-25T00:40:10.068Z,4.80
2024-01-25T00:42:44.944Z,4.97
2024-01-25T00:45:12.630Z,4.77
2024-01-25T00:47:39.934Z,5.43
2024-01-25T00:50:07.602Z,4.90
2024-01-25T00:52:34.862Z,4.63
2024-01-25T00:55:02.139Z,4.80
2024-01-25T00:57:29.254Z,4.70
2024-01-25T00:59:56.769Z,4.80
2024-01-25T01:02:23.943Z,5.20
2024-01-25T01:04:51.240Z,4.93
2024-01-25T01:07:18.546Z,4.57
2024-01-25T01:09:45.377Z,4.67
2024-01-25T01:12:12.125Z,5.00
2024-01-25T01:14:38.870Z,4.73
2024-01-25T01:17:05.657Z,4.07
2024-01-25T01:19:32.617Z,4.40
2024-01-25T01:21:59.611Z,5.23
2024-01-25T01:24:26.450Z,4.53
2024-01-25T01:26:53.932Z,5.60
2024-01-25T01:29:20.744Z,4.53
2024-01-25T01:31:47.543Z,5.37
2024-01-25T01:34:15.173Z,4.83
2024-01-25T01:36:42.281Z,5.83
2024-01-25T01:39:09.480Z,4.77
2024-01-25T01:41:36.393Z,5.00
2024-01-25T01:44:03.470Z,4.83
2024-01-25T01:46:37.981Z,5.07
2024-01-25T01:49:06.267Z,4.83
2024-01-25T01:51:34.278Z,5.43
2024-01-25T01:54:04.163Z,4.40
2024-01-25T01:56:30.992Z,4.33
2024-01-25T01:59:00.684Z,5.07
2024-01-25T02:01:28.097Z,5.20
2024-01-25T02:03:55.474Z,4.00
2024-01-25T02:06:24.295Z,5.13
2024-01-25T02:08:52.608Z,4.33
2024-01-25T02:11:19.801Z,4.03
2024-01-25T02:13:46.660Z,4.47
2024-01-25T02:16:15.828Z,4.63
2024-01-25T02:18:43.357Z,5.37
2024-01-25T02:21:10.425Z,3.80
2024-01-25T02:23:37.264Z,4.90
2024-01-25T02:26:04.145Z,4.73
2024-01-25T02:28:31.162Z,4.20
2024-01-25T02:31:00.033Z,4.60
2024-01-25T02:33:26.908Z,5.47
2024-01-25T02:35:53.748Z,4.87
2024-01-25T02:38:20.508Z,4.90
2024-01-25T02:40:47.285Z,5.10
2024-01-25T02:43:14.179Z,4.50
2024-01-25T02:45:40.965Z,4.57
2024-01-25T02:48:08.073Z,4.57
2024-01-25T02:50:34.874Z,5.00
2024-01-25T02:53:01.585Z,4.37
2024-01-25T02:55:29.038Z,4.70
2024-01-25T02:57:55.804Z,4.67
2024-01-25T03:00:22.741Z,4.07
2024-01-25T03:02:49.555Z,5.03
2024-01-25T03:05:16.720Z,4.30
2024-01-25T03:07:43.705Z,4.80
2024-01-25T03:10:10.944Z,4.50
2024-01-25T03:12:38.145Z,4.63
2024-01-25T03:15:07.132Z,4.70
2024-01-25T03:17:34.226Z,4.40
2024-01-25T03:20:01.322Z,5.03
2024-01-25T03:22:28.385Z,5.07
2024-01-25T03:24:55.247Z,5.20
2024-01-25T03:27:22.053Z,5.13
2024-01-25T03:29:48.788Z,4.70
2024-01-25T03:32:15.664Z,4.87
2024-01-25T03:34:42.518Z,4.50
2024-01-25T03:37:09.355Z,4.67
2024-01-25T03:39:36.347Z,4.93
2024-01-25T03:42:03.254Z,4.80
2024-01-25T03:44:30.182Z,4.80
2024-01-25T03:46:56.985Z,4.83
2024-01-25T03:49:24.501Z,4.77
2024-01-25T03:51:51.818Z,4.70
2024-01-25T03:54:18.705Z,4.47
2024-01-25T03:56:45.454Z,4.70
2024-01-25T03:59:14.837Z,5.67
2024-01-25T04:01:45.868Z,4.53
2024-01-25T04:04:14.173Z,4.40
2024-01-25T04:06:46.819Z,4.60
2024-01-25T04:09:14.338Z,5.20
2024-01-25T04:11:41.040Z,4.63
2024-01-25T04:14:07.860Z,5.23
2024-01-25T04:16:35.124Z,5.30
2024-01-25T04:19:02.270Z,4.53
2024-01-25T04:21:29.482Z,5.87
2024-01-25T04:23:56.365Z,4.87
2024-01-25T04:26:23.383Z,5.27
2024-01-25T04:28:50.748Z,5.53
2024-01-25T04:31:18.219Z,5.30
2024-01-25T04:33:48.313Z,4.47
2024-01-25T04:36:15.867Z,4.83
2024-01-25T04:38:43.482Z,6.17
2024-01-25T04:41:10.300Z,5.13
2024-01-25T04:43:38.021Z,4.60
2024-01-25T04:46:05.796Z,5.07
2024-01-25T04:48:33.590Z,4.83
2024-01-25T04:51:01.038Z,5.57
2024-01-25T04:53:28.048Z,5.67
2024-01-25T04:55:55.650Z,5.07
2024-01-25T04:58:23.020Z,4.73
2024-01-25T05:00:52.094Z,5.37
2024-01-25T05:03:20.214Z,4.93
2024-01-25T05:05:47.009Z,5.23
2024-01-25T05:08:13.824Z,5.57
2024-01-25T05:10:40.657Z,5.23
2024-01-25T05:13:08.063Z,4.73
2024-01-25T05:15:35.998Z,5.30
2024-01-25T05:18:03.674Z,4.73
2024-01-25T05:20:34.057Z,4.23
2024-01-25T05:23:02.334Z,5.40
2024-01-25T05:25:29.483Z,5.23
2024-01-25T05:27:59.558Z,4.90
2024-01-25T05:30:26.874Z,4.97
2024-01-25T05:32:55.518Z,4.90
2024-01-25T05:35:22.571Z,5.33
2024-01-25T05:37:49.373Z,4.87
2024-01-25T05:40:16.580Z,4.50
2024-01-25T05:42:43.543Z,5.20
2024-01-25T05:45:10.809Z,6.07
2024-01-25T05:47:37.756Z,5.07
2024-01-25T05:50:06.098Z,5.13
2024-01-25T05:52:33.228Z,5.40
2024-01-25T05:55:03.262Z,5.13
2024-01-25T05:57:33.288Z,6.20
2024-01-25T06:00:00.439Z,5.50
2024-01-25T06:02:27.534Z,5.30
2024-01-25T06:04:54.425Z,5.63
2024-01-25T06:07:21.861Z,5.03
2024-01-25T06:09:49.002Z,6.00
2024-01-25T06:12:15.846Z,5.97
2024-01-25T06:14:42.667Z,6.47
2024-01-25T06:17:09.422Z,5.03
2024-01-25T06:19:36.276Z,5.63
2024-01-25T06:22:04.037Z,5.73
2024-01-25T06:24:31.234Z,5.60
2024-01-25T06:26:58.197Z,5.23
2024-01-25T06:29:24.976Z,5.87
2024-01-25T06:31:52.307Z,6.13
2024-01-25T06:34:19.213Z,5.57
2024-01-25T06:36:46.097Z,5.23
2024-01-25T06:39:13.000Z,5.90
2024-01-25T06:41:39.721Z,4.90
2024-01-25T06:44:06.423Z,5.03
2024-01-25T06:46:33.224Z,5.77
2024-01-25T06:49:00.274Z,5.27
2024-01-25T06:51:27.207Z,6.13
2024-01-25T06:53:53.969Z,5.47
2024-01-25T06:56:20.738Z,5.90
2024-01-25T06:58:47.551Z,5.97
2024-01-25T07:01:21.100Z,5.83
2024-01-25T07:03:50.410Z,5.97
2024-01-25T07:06:19.858Z,5.93
2024-01-25T07:08:47.478Z,5.73
2024-01-25T07:11:14.343Z,5.77
2024-01-25T07:13:42.400Z,5.90
2024-01-25T07:16:09.335Z,5.70
2024-01-25T07:18:36.485Z,5.47
2024-01-25T07:21:03.731Z,4.87
2024-01-25T07:23:34.794Z,5.83
2024-01-25T07:26:01.544Z,5.40
2024-01-25T07:28:28.688Z,5.90
2024-01-25T07:30:55.659Z,5.93
2024-01-25T07:33:22.591Z,5.40
2024-01-25T07:35:49.590Z,4.87
2024-01-25T07:38:17.653Z,4.87
2024-01-25T07:40:44.926Z,5.73
2024-01-25T07:43:12.084Z,5.23
2024-01-25T07:45:41.226Z,6.43
2024-01-25T07:48:14.381Z,5.07
2024-01-25T07:50:42.434Z,5.97
2024-01-25T07:53:09.399Z,5.40
2024-01-25T07:55:36.339Z,5.83
2024-01-25T07:58:03.330Z,5.17
2024-01-25T08:00:30.163Z,5.40
2024-01-25T08:02:57.081Z,5.03
2024-01-25T08:05:28.703Z,5.03
2024-01-25T08:08:01.135Z,5.47
2024-01-25T08:10:28.411Z,4.93
2024-01-25T08:13:02.713Z,5.80
2024-01-25T08:15:33.643Z,5.10
2024-01-25T08:18:00.606Z,5.27
2024-01-25T08:20:27.730Z,5.17
2024-01-25T08:22:54.581Z,5.03
2024-01-25T08:25:21.646Z,5.07
2024-01-25T08:27:48.676Z,4.93
2024-01-25T08:30:15.695Z,5.43
2024-01-25T08:32:42.592Z,5.47
2024-01-25T08:35:10.081Z,6.40
2024-01-25T08:37:39.314Z,5.38
2024-01-25T08:40:10.859Z,5.22
2024-01-25T08:42:38.073Z,4.68
2024-01-25T08:45:06.870Z,5.50
2024-01-25T08:47:33.668Z,5.60
2024-01-25T08:50:00.610Z,4.65
2024-01-25T08:52:27.650Z,4.80
2024-01-25T08:54:54.545Z,5.00
2024-01-25T08:57:21.553Z,5.40
2024-01-25T08:59:48.337Z,5.45
2024-01-25T09:02:15.301Z,5.28
2024-01-25T09:04:44.593Z,5.72
2024-01-25T09:07:11.636Z,4.78
2024-01-25T09:09:39.445Z,4.68
2024-01-25T09:12:09.319Z,5.47
2024-01-25T09:14:37.338Z,5.55
2024-01-25T09:17:04.506Z,5.30
2024-01-25T09:19:31.649Z,5.05
2024-01-25T09:22:02.435Z,5.07
2024-01-25T09:24:29.239Z,5.68
2024-01-25T09:26:56.903Z,5.85
2024-01-25T09:29:23.767Z,6.03
2024-01-25T09:31:50.822Z,5.38
2024-01-25T09:34:18.552Z,5.90
2024-01-25T09:36:46.715Z,5.53
2024-01-25T09:39:15.348Z,5.40
2024-01-25T09:41:44.559Z,5.43
2024-01-25T09:44:13.538Z,4.82
2024-01-25T09:46:42.461Z,4.78
2024-01-25T09:49:10.026Z,7.38
2024-01-25T09:51:42.548Z,6.30
2024-01-25T09:54:09.865Z,5.53
2024-01-25T09:56:37.230Z,5.15
2024-01-25T09:59:05.946Z,6.65
2024-01-25T10:01:32.965Z,5.53
2024-01-25T10:03:59.939Z,5.82
2024-01-25T10:06:26.955Z,4.50
2024-01-25T10:08:54.777Z,5.00
2024-01-25T10:11:21.559Z,4.28
2024-01-25T10:13:51.895Z,4.70
2024-01-25T10:16:20.391Z,5.20
2024-01-25T10:18:48.923Z,5.63
2024-01-25T10:21:17.901Z,5.20
2024-01-25T10:23:49.599Z,5.03
2024-01-25T10:26:18.358Z,5.40
2024-01-25T10:28:55.761Z,5.25
2024-01-25T10:31:29.136Z,5.30
2024-01-25T10:33:56.595Z,6.32
2024-01-25T10:36:23.676Z,5.30
2024-01-25T10:38:53.770Z,4.90
2024-01-25T10:41:20.900Z,4.35
2024-01-25T10:43:48.131Z,5.30
2024-01-25T10:46:15.780Z,4.47
2024-01-25T10:48:43.357Z,3.95
2024-01-25T10:51:12.888Z,4.50
2024-01-25T10:53:41.284Z,4.95
2024-01-25T10:56:08.159Z,4.75
2024-01-25T10:58:38.239Z,3.63
2024-01-25T11:01:15.155Z,4.70
2024-01-25T11:03:43.760Z,4.78
2024-01-25T11:06:12.434Z,4.65
2024-01-25T11:08:40.062Z,4.57
2024-01-25T11:11:09.280Z,4.40
2024-01-25T11:13:36.603Z,4.75
2024-01-25T11:16:29.464Z,5.50
2024-01-25T11:19:00.247Z,5.23
2024-01-25T11:21:46.910Z,4.93
2024-01-25T11:24:28.704Z,4.83
2024-01-25T11:26:56.163Z,4.67
2024-01-25T11:29:25.049Z,4.17
2024-01-25T11:31:53.460Z,4.73
2024-01-25T11:34:21.629Z,5.00
2024-01-25T11:36:49.203Z,5.50
2024-01-25T11:39:17.314Z,5.60
2024-01-25T11:41:45.654Z,5.00
2024-01-25T11:44:13.574Z,4.13
2024-01-25T11:46:41.031Z,4.67
2024-01-25T11:49:10.816Z,4.50
2024-01-25T11:51:38.091Z,4.53
2024-01-25T11:54:09.276Z,4.33
2024-01-25T11:56:41.637Z,4.53
2024-01-25T11:59:09.912Z,4.07
2024-01-25T12:01:37.074Z,4.23
2024-01-25T12:04:05.238Z,4.73
2024-01-25T12:06:32.490Z,4.03
2024-01-25T12:09:10.327Z,4.83
2024-01-25T12:11:37.602Z,4.13
2024-01-25T12:14:04.428Z,5.30
2024-01-25T12:16:33.492Z,3.77
2024-01-25T12:19:01.245Z,3.83
2024-01-25T12:21:28.199Z,4.10
2024-01-25T12:23:54.925Z,4.00
2024-01-25T12:26:21.819Z,4.47
2024-01-25T12:28:50.351Z,4.47
2024-01-25T12:31:17.366Z,5.17
2024-01-25T12:33:44.639Z,4.47
2024-01-25T12:36:12.296Z,4.80
2024-01-25T12:38:40.228Z,4.13
2024-01-25T12:41:07.038Z,4.73
2024-01-25T12:43:34.184Z,4.50
2024-01-25T12:46:07.031Z,4.20
2024-01-25T12:48:45.258Z,3.60
2024-01-25T12:51:15.254Z,3.80
2024-01-25T12:53:42.338Z,4.87
2024-01-25T12:56:10.859Z,4.87
2024-01-25T12:58:37.686Z,4.10
2024-01-25T13:01:05.854Z,4.17
2024-01-25T13:03:32.948Z,5.07
2024-01-25T13:06:00.021Z,4.40
2024-01-25T13:08:27.193Z,4.17
2024-01-25T13:10:53.888Z,4.50
2024-01-25T13:13:21.708Z,3.70
2024-01-25T13:15:48.731Z,4.37
2024-01-25T13:18:15.592Z,4.23
2024-01-25T13:20:42.367Z,4.63
2024-01-25T13:23:09.429Z,4.30
2024-01-25T13:25:36.164Z,3.90
2024-01-25T13:28:02.927Z,3.77
2024-01-25T13:30:29.615Z,4.07
2024-01-25T13:32:56.662Z,4.20
2024-01-25T13:35:23.446Z,4.40
2024-01-25T13:37:50.167Z,4.30
2024-01-25T13:40:18.369Z,5.13
2024-01-25T13:42:46.759Z,4.47
2024-01-25T13:45:13.534Z,4.40
2024-01-25T13:47:40.312Z,4.20
2024-01-25T13:50:07.362Z,4.57
2024-01-25T13:52:34.129Z,4.30
2024-01-25T13:55:00.901Z,4.50
2024-01-25T13:57:27.665Z,4.63
2024-01-25T13:59:54.365Z,4.23
2024-01-25T14:02:21.062Z,4.10
2024-01-25T14:04:48.035Z,4.07
2024-01-25T14:07:18.064Z,5.13
2024-01-25T14:09:45.126Z,4.73
2024-01-25T14:12:12.622Z,4.67
2024-01-25T14:14:40.221Z,4.93
2024-01-25T14:17:07.566Z,4.37
2024-01-25T14:19:34.722Z,4.97
2024-01-25T14:22:10.799Z,5.33
2024-01-25T14:24:49.137Z,4.63
2024-01-25T14:27:16.860Z,5.07
2024-01-25T14:29:43.602Z,4.77
2024-01-25T14:32:10.756Z,5.10
2024-01-25T14:34:37.868Z,4.57
2024-01-25T14:37:04.870Z,4.43
2024-01-25T14:39:32.296Z,4.70
2024-01-25T14:41:59.085Z,4.37
2024-01-25T14:44:25.784Z,5.70
2024-01-25T14:46:52.511Z,4.47
2024-01-25T14:49:19.430Z,4.53
2024-01-25T14:51:46.298Z,5.57
2024-01-25T14:54:13.189Z,5.07
2024-01-25T14:56:39.944Z,5.33
2024-01-25T14:59:06.696Z,6.20
2024-01-25T15:01:33.593Z,5.90
2024-01-25T15:04:00.722Z,6.50
2024-01-25T15:06:27.829Z,5.67
2024-01-25T15:08:54.617Z,5.97
2024-01-25T15:11:21.393Z,6.00
2024-01-25T15:13:49.678Z,4.27
2024-01-25T15:16:20.133Z,4.83
2024-01-25T15:18:48.377Z,4.40
2024-01-25T15:21:15.422Z,4.40
2024-01-25T15:23:42.289Z,4.50
2024-01-25T15:26:09.256Z,4.40
2024-01-25T15:28:36.038Z,4.90
2024-01-25T15:31:03.377Z,4.20
2024-01-25T15:33:30.530Z,5.40
2024-01-25T15:35:57.764Z,7.57
2024-01-25T15:38:25.230Z,7.47
2024-01-25T15:40:51.961Z,7.43
2024-01-25T15:43:18.710Z,7.10
2024-01-25T15:45:45.472Z,8.50
2024-01-25T15:48:12.506Z,8.33
2024-01-25T15:50:40.470Z,7.07
2024-01-25T15:53:07.655Z,7.80
2024-01-25T15:55:34.518Z,6.73
2024-01-25T15:58:01.380Z,7.33
2024-01-25T16:00:28.300Z,7.40
2024-01-25T16:02:57.567Z,7.43
2024-01-25T16:05:24.588Z,7.40
2024-01-25T16:07:51.438Z,7.53
2024-01-25T16:10:19.350Z,6.33
2024-01-25T16:12:46.334Z,6.83
2024-01-25T16:15:13.417Z,6.47
2024-01-25T16:17:40.310Z,5.80
2024-01-25T16:20:07.893Z,6.23
2024-01-25T16:22:34.745Z,4.87
2024-01-25T16:25:01.759Z,6.03
2024-01-25T16:27:28.575Z,5.67
2024-01-25T16:29:55.451Z,5.77
2024-01-25T16:32:23.168Z,6.30
2024-01-25T16:34:50.004Z,8.77
2024-01-25T16:37:18.021Z,10.20
2024-01-25T16:39:44.950Z,10.33
2024-01-25T16:42:11.775Z,8.67
2024-01-25T16:44:38.573Z,9.17
2024-01-25T16:47:05.385Z,9.10
2024-01-25T16:49:32.243Z,9.10
2024-01-25T16:51:59.473Z,10.90
2024-01-25T16:54:26.859Z,9.63
2024-01-25T16:56:53.684Z,14.53
2024-01-25T16:59:20.510Z,15.43
2024-01-25T17:01:47.986Z,14.20
2024-01-25T17:04:15.035Z,15.77
2024-01-25T17:06:43.402Z,14.30
2024-01-25T17:09:10.529Z,12.97
2024-01-25T17:11:37.695Z,12.87
2024-01-25T17:14:04.696Z,12.00
2024-01-25T17:16:31.489Z,11.87
2024-01-25T17:19:00.244Z,12.87
2024-01-25T17:21:29.002Z,13.73
2024-01-25T17:23:56.462Z,12.87
2024-01-25T17:26:23.440Z,13.37
2024-01-25T17:28:50.324Z,12.80
2024-01-25T17:31:18.687Z,12.40
2024-01-25T17:33:46.602Z,13.97
2024-01-25T17:36:14.745Z,12.80
2024-01-25T17:38:41.810Z,14.23
2024-01-25T17:41:08.686Z,14.60
2024-01-25T17:43:35.412Z,13.50
2024-01-25T17:46:02.780Z,12.47
2024-01-25T17:48:29.993Z,13.47
2024-01-25T17:50:56.828Z,14.60
2024-01-25T17:53:23.550Z,15.27
2024-01-25T17:55:50.303Z,18.33
2024-01-25T17:58:17.063Z,17.87
2024-01-25T18:00:43.889Z,20.67
2024-01-25T18:03:10.684Z,20.80
2024-01-25T18:05:37.478Z,19.93
2024-01-25T18:08:04.496Z,18.73
2024-01-25T18:10:31.282Z,15.97
2024-01-25T18:12:58.054Z,19.27
2024-01-25T18:15:24.779Z,16.67
2024-01-25T18:17:51.619Z,15.67
2024-01-25T18:20:19.057Z,21.30
2024-01-25T18:22:45.908Z,21.43
2024-01-25T18:25:13.355Z,22.60
2024-01-25T18:27:40.421Z,22.00
2024-01-25T18:30:09.008Z,22.23
2024-01-25T18:32:35.849Z,21.83
2024-01-25T18:35:02.890Z,21.47
2024-01-25T18:37:29.748Z,22.17
2024-01-25T18:39:56.673Z,22.33
2024-01-25T18:42:23.529Z,20.03
2024-01-25T18:44:50.244Z,19.60
2024-01-25T18:47:17.004Z,16.27
2024-01-25T18:49:43.838Z,16.63
2024-01-25T18:52:11.161Z,17.93
2024-01-25T18:54:38.292Z,17.80
2024-01-25T18:57:05.679Z,16.50
2024-01-25T18:59:32.721Z,14.47
2024-01-25T19:01:59.723Z,13.10
2024-01-25T19:04:26.912Z,13.70
2024-01-25T19:06:55.527Z,12.43
2024-01-25T19:09:23.972Z,13.83
2024-01-25T19:11:53.881Z,12.00
2024-01-25T19:14:21.264Z,12.13
2024-01-25T19:16:52.279Z,14.57
2024-01-25T19:19:19.645Z,14.07
2024-01-25T19:21:46.833Z,12.37
2024-01-25T19:24:17.400Z,13.43
2024-01-25T19:26:46.878Z,12.67
2024-01-25T19:29:13.902Z,11.70
2024-01-25T19:31:41.066Z,11.90
2024-01-25T19:34:08.995Z,15.10
2024-01-25T19:36:36.347Z,14.57
2024-01-25T19:39:03.293Z,14.60
2024-01-25T19:41:30.116Z,13.47
2024-01-25T19:43:57.264Z,13.70
2024-01-25T19:46:23.988Z,11.67
2024-01-25T19:48:50.841Z,12.80
2024-01-25T19:51:17.799Z,12.47
2024-01-25T19:53:44.689Z,10.47
2024-01-25T19:56:11.468Z,9.37
2024-01-25T19:58:39.259Z,9.73
2024-01-25T20:01:06.396Z,9.50
2024-01-25T20:03:33.449Z,9.50
2024-01-25T20:06:00.566Z,10.23
2024-01-25T20:08:28.214Z,12.13
2024-01-25T20:10:55.067Z,12.60
2024-01-25T20:13:22.128Z,11.57
2024-01-25T20:15:49.000Z,11.47
2024-01-25T20:18:15.935Z,10.47
2024-01-25T20:20:48.506Z,10.73
2024-01-25T20:23:16.221Z,11.30
2024-01-25T20:25:43.023Z,11.63
2024-01-25T20:28:10.420Z,12.90
2024-01-25T20:30:39.909Z,14.67
2024-01-25T20:33:07.114Z,13.60
2024-01-25T20:35:34.027Z,12.10
2024-01-25T20:38:01.179Z,12.47
2024-01-25T20:40:28.007Z,12.23
2024-01-25T20:42:54.792Z,12.17
2024-01-25T20:45:23.421Z,14.57
2024-01-25T20:47:50.855Z,12.63
2024-01-25T20:50:25.550Z,13.93
2024-01-25T20:52:56.978Z,31.00
2024-01-25T20:55:23.750Z,30.60
2024-01-25T20:57:53.225Z,26.27
2024-01-25T21:00:23.663Z,26.03
2024-01-25T21:02:50.754Z,24.97
2024-01-25T21:05:17.879Z,27.33
2024-01-25T21:07:45.109Z,27.40
2024-01-25T21:10:12.432Z,26.93
2024-01-25T21:12:39.419Z,26.80
2024-01-25T21:15:11.597Z,24.77
2024-01-25T21:17:39.582Z,23.93
2024-01-25T21:20:08.358Z,24.07
2024-01-25T21:22:35.130Z,21.73
2024-01-25T21:25:02.410Z,22.77
2024-01-25T21:27:29.341Z,21.20
2024-01-25T21:29:59.183Z,19.87
2024-01-25T21:32:26.109Z,20.20
2024-01-25T21:34:52.976Z,18.53
2024-01-25T21:37:19.839Z,16.67
2024-01-25T21:39:46.593Z,15.07
2024-01-25T21:42:13.508Z,19.90
2024-01-25T21:44:40.543Z,18.90
2024-01-25T21:47:07.274Z,18.07
2024-01-25T21:49:34.349Z,15.80
2024-01-25T21:52:02.808Z,14.07
2024-01-25T21:54:30.315Z,15.57
2024-01-25T21:56:57.288Z,15.57
2024-01-25T21:59:24.160Z,16.57
2024-01-25T22:01:51.462Z,17.53
2024-01-25T22:04:20.534Z,18.03
2024-01-25T22:06:48.061Z,17.50
2024-01-25T22:09:15.111Z,16.30
2024-01-25T22:11:41.888Z,15.80
2024-01-25T22:14:08.738Z,16.20
2024-01-25T22:16:35.593Z,14.97
2024-01-25T22:19:02.466Z,14.57
2024-01-25T22:21:29.441Z,14.37
2024-01-25T22:23:56.184Z,15.83
2024-01-25T22:26:24.007Z,16.47
2024-01-25T22:28:50.859Z,16.97
2024-01-25T22:31:17.556Z,16.60
2024-01-25T22:33:44.829Z,15.87
2024-01-25T22:36:11.764Z,15.60
2024-01-25T22:38:38.593Z,16.30
2024-01-25T22:41:05.308Z,16.00
2024-01-25T22:43:32.057Z,15.63
2024-01-25T22:45:59.183Z,16.40
2024-01-25T22:48:26.239Z,16.07
2024-01-25T22:50:53.077Z,15.63
2024-01-25T22:53:21.618Z,16.37
2024-01-25T22:55:48.684Z,16.03
2024-01-25T22:58:15.643Z,16.67
2024-01-25T23:00:42.533Z,15.10
2024-01-25T23:03:09.863Z,16.47
2024-01-25T23:05:36.781Z,15.97
2024-01-25T23:08:04.109Z,15.87
2024-01-25T23:10:31.559Z,15.77
2024-01-25T23:12:58.784Z,16.20
2024-01-25T23:15:26.233Z,15.00
2024-01-25T23:17:55.155Z,17.63
2024-01-25T23:20:22.411Z,16.53
2024-01-25T23:22:49.290Z,16.60
2024-01-25T23:25:16.855Z,15.93
2024-01-25T23:27:44.076Z,15.47
2024-01-25T23:30:11.172Z,14.33
2024-01-25T23:32:38.177Z,14.60
2024-01-25T23:35:05.639Z,12.83
2024-01-25T23:37:32.786Z,14.23
2024-01-25T23:40:01.287Z,13.77
2024-01-25T23:42:28.999Z,13.43
2024-01-25T23:44:56.220Z,13.63
2024-01-25T23:47:23.532Z,17.47
2024-01-25T23:49:51.369Z,17.10
2024-01-25T23:52:18.516Z,15.73
2024-01-25T23:54:45.315Z,14.77
2024-01-25T23:57:12.143Z,14.80
2024-01-25T23:59:39.070Z,13.67
